Time;durP1;ratioP1;P1;durP2;ratioP2;P2;SDS_P1;SDS_P2;PMS_P1;PMS_P2;Temp;Humidity;BMP_temperature;BMP_pressure;BME280_temperature;BME280_humidity;BME280_pressure;Samples;Min_cycle;Max_cycle;Signal;HPM_P1;HPM_P2
2021/04/03 00:00:56;;;;;;;30.90;20.77;;;;;;;3.20;71.25;95662.72;5100838;28;20024;-90
2021/04/03 00:03:23;;;;;;;27.58;19.52;;;;;;;2.95;70.15;95634.63;5101043;28;20035;-92
2021/04/03 00:05:50;;;;;;;26.27;20.08;;;;;;;3.02;69.68;95637.09;5099966;28;20024;-91
2021/04/03 00:08:16;;;;;;;25.92;19.60;;;;;;;3.44;69.93;95696.16;5099844;28;20039;-90
2021/04/03 00:10:55;;;;;;;29.23;19.80;;;;;;;3.35;69.19;95704.81;5100644;28;20033;-91
2021/04/03 00:13:23;;;;;;;28.25;20.33;;;;;;;3.05;68.64;95638.19;5099455;28;20028;-90
2021/04/03 00:15:49;;;;;;;27.42;19.88;;;;;;;3.21;67.96;95669.59;5099419;28;20148;-91
2021/04/03 00:18:16;;;;;;;27.00;19.70;;;;;;;3.37;68.54;95689.06;5100282;28;20028;-89
2021/04/03 00:20:43;;;;;;;29.13;20.23;;;;;;;3.26;69.17;95669.81;5100358;28;20048;-90
2021/04/03 00:23:09;;;;;;;28.90;20.38;;;;;;;3.22;70.84;95671.09;5099374;28;20032;-91
2021/04/03 00:25:34;;;;;;;29.60;20.52;;;;;;;3.30;69.22;95685.81;5100773;28;20312;-90
2021/04/03 00:28:00;;;;;;;25.55;18.92;;;;;;;3.46;70.52;95704.53;5100074;28;20031;-90
2021/04/03 00:30:26;;;;;;;27.95;20.33;;;;;;;3.45;71.57;95704.97;5099244;28;20024;-89
2021/04/03 00:32:59;;;;;;;32.72;21.67;;;;;;;3.51;70.94;95697.88;5099042;28;20046;-90
2021/04/03 00:35:33;;;;;;;31.35;22.83;;;;;;;3.41;71.79;95705.81;5100033;28;20028;-90
2021/04/03 00:38:00;;;;;;;32.38;22.23;;;;;;;3.39;71.94;95705.47;5099026;28;20403;-90
2021/04/03 00:40:27;;;;;;;31.55;21.98;;;;;;;3.27;72.82;95700.09;5098745;28;20059;-90
2021/04/03 00:42:52;;;;;;;33.38;23.05;;;;;;;3.04;73.04;95668.88;5098993;28;20035;-90
2021/04/03 00:45:19;;;;;;;33.35;22.65;;;;;;;3.18;72.03;95689.22;5099749;28;20039;-90
2021/04/03 00:47:45;;;;;;;31.65;20.17;;;;;;;2.93;72.49;95653.06;5098872;28;20408;-90
2021/04/03 00:50:12;;;;;;;26.40;18.58;;;;;;;3.12;70.79;95684.34;5098950;28;20032;-90
2021/04/03 00:52:38;;;;;;;25.67;17.83;;;;;;;3.04;70.39;95679.63;5099746;28;20332;-90
2021/04/03 00:55:09;;;;;;;27.00;18.52;;;;;;;2.94;71.26;95676.03;5098777;28;20031;-90
2021/04/03 00:57:35;;;;;;;25.27;17.80;;;;;;;2.85;72.57;95655.19;5098708;28;20024;-90
2021/04/03 01:00:00;;;;;;;27.50;19.58;;;;;;;2.92;72.14;95659.59;5099293;28;20024;-91
2021/04/03 01:02:26;;;;;;;30.38;21.38;;;;;;;2.81;72.78;95630.38;5098889;28;20035;-90
2021/04/03 01:04:51;;;;;;;30.58;19.65;;;;;;;2.53;72.38;95615.78;5098537;28;20144;-91
2021/04/03 01:07:17;;;;;;;35.45;24.40;;;;;;;2.12;73.37;95560.16;5098414;28;20030;-90
2021/04/03 01:09:44;;;;;;;36.70;24.13;;;;;;;2.58;73.28;95647.44;5099488;28;20024;-90
2021/04/03 01:12:34;;;;;;;34.15;23.17;;;;;;;2.68;73.50;95652.97;5098491;28;20362;-90
2021/04/03 01:15:24;;;;;;;36.25;23.80;;;;;;;2.93;74.04;95681.81;5098389;28;20415;-90
2021/04/03 01:17:58;;;;;;;37.38;24.25;;;;;;;2.80;72.64;95681.75;5099232;28;20020;-91
2021/04/03 01:20:32;;;;;;;36.05;23.58;;;;;;;2.72;73.09;95685.81;5098290;28;20032;-91
2021/04/03 01:23:16;;;;;;;34.25;24.17;;;;;;;2.76;74.82;95684.53;5098238;28;20040;-90
2021/04/03 01:25:47;;;;;;;40.30;24.50;;;;;;;2.74;74.09;95684.22;5099166;28;20076;-91
2021/04/03 01:28:34;;;;;;;34.83;24.08;;;;;;;2.55;72.80;95677.00;5098711;28;20024;-90
2021/04/03 01:31:01;;;;;;;36.97;24.13;;;;;;;2.33;73.80;95647.31;5098669;28;20035;-91
2021/04/03 01:33:31;;;;;;;35.92;23.58;;;;;;;2.17;73.45;95640.03;5100247;28;20039;-91
2021/04/03 01:36:14;;;;;;;38.72;23.92;;;;;;;2.16;75.74;95637.78;5099237;28;20031;-90
2021/04/03 01:38:56;;;;;;;33.40;23.65;;;;;;;2.15;75.60;95636.28;5098724;28;20028;-90
2021/04/03 01:41:24;;;;;;;84.45;57.58;;;;;;;2.40;74.50;95649.81;5097897;28;20066;-91
2021/04/03 01:43:52;;;;;;;34.58;23.48;;;;;;;1.96;74.21;95609.13;5097672;28;20032;-90
2021/04/03 01:46:21;;;;;;;32.70;22.67;;;;;;;2.16;74.34;95643.88;5097645;28;20049;-90
2021/04/03 01:48:48;;;;;;;34.13;23.02;;;;;;;1.77;74.47;95599.25;5097666;28;20024;-90
2021/04/03 01:51:16;;;;;;;34.42;21.90;;;;;;;1.82;75.36;95628.97;5098654;28;20027;-91
2021/04/03 01:53:42;;;;;;;30.95;21.48;;;;;;;2.04;74.81;95657.94;5097238;28;20056;-90
2021/04/03 01:56:11;;;;;;;29.80;20.92;;;;;;;1.83;75.65;95635.09;5097741;28;20020;-90
2021/04/03 01:58:37;;;;;;;31.52;20.70;;;;;;;2.03;75.17;95645.72;5100591;28;20028;-91
2021/04/03 02:01:04;;;;;;;30.50;21.33;;;;;;;2.35;76.19;95672.53;5089598;28;20082;-91
2021/04/03 02:03:33;;;;;;;31.42;21.42;;;;;;;2.19;73.73;95620.88;5077166;28;20367;-90
2021/04/03 02:06:02;;;;;;;30.10;21.45;;;;;;;2.49;73.90;95651.91;5078253;28;20426;-91
2021/04/03 02:08:27;;;;;;;33.17;22.92;;;;;;;2.39;71.87;95629.53;5078074;28;20372;-90
2021/04/03 02:10:53;;;;;;;28.83;21.08;;;;;;;2.54;72.26;95640.66;5076834;28;20016;-90
2021/04/03 02:13:20;;;;;;;33.13;24.30;;;;;;;2.49;73.33;95609.00;5077907;28;20055;-90
2021/04/03 02:15:47;;;;;;;32.80;22.20;;;;;;;2.93;71.53;95661.13;5076980;28;20047;-90
2021/04/03 02:18:15;;;;;;;30.92;22.25;;;;;;;2.97;72.24;95656.41;5077008;28;20107;-91
2021/04/03 02:20:41;;;;;;;32.83;22.85;;;;;;;2.68;72.34;95608.13;5078492;28;20024;-90
2021/04/03 02:23:07;;;;;;;32.50;22.35;;;;;;;2.83;73.15;95624.59;5078005;28;20024;-91
2021/04/03 02:25:32;;;;;;;32.55;23.05;;;;;;;3.04;72.04;95660.84;5076685;28;20032;-90
2021/04/03 02:27:58;;;;;;;33.50;23.02;;;;;;;2.94;73.12;95635.03;5077791;28;20503;-91
2021/04/03 02:30:24;;;;;;;36.83;23.40;;;;;;;2.96;74.08;95630.75;5077785;28;20036;-91
2021/04/03 02:32:55;;;;;;;31.08;22.08;;;;;;;3.11;74.04;95652.59;5076602;28;20332;-90
2021/04/03 02:35:22;;;;;;;;;;;;;;;3.07;73.55;95650.00;5077997;28;20174;-90
2021/04/03 02:37:51;;;;;;;31.70;21.63;;;;;;;3.03;73.01;95640.53;5076501;28;19994;-90
2021/04/03 02:40:19;;;;;;;31.75;22.75;;;;;;;2.75;73.75;95599.88;5076488;28;20032;-90
2021/04/03 02:43:22;;;;;;;30.90;21.42;;;;;;;2.86;73.23;95629.84;5076386;28;20024;-90
2021/04/03 02:45:57;;;;;;;30.83;21.42;;;;;;;2.83;72.71;95630.72;5077984;28;20028;-90
2021/04/03 02:48:26;;;;;;;41.08;32.38;;;;;;;2.92;72.53;95651.53;5077987;28;20016;-91
2021/04/03 02:50:54;;;;;;;59.25;53.25;;;;;;;2.96;72.10;95654.16;5076392;28;20032;-90
2021/04/03 02:53:29;;;;;;;66.95;59.83;;;;;;;2.97;72.11;95653.72;5075879;28;20373;-90
2021/04/03 02:55:56;;;;;;;36.75;26.77;;;;;;;2.80;74.37;95631.56;5077187;28;20029;-91
2021/04/03 02:58:23;;;;;;;37.45;26.85;;;;;;;2.99;75.43;95642.56;5077159;28;20095;-90
2021/04/03 03:00:55;;;;;;;42.50;28.30;;;;;;;2.95;75.44;95623.13;5076755;28;20055;-91
2021/04/03 03:03:25;;;;;;;34.30;25.00;;;;;;;2.71;75.40;95598.47;5076199;28;20412;-90
2021/04/03 03:05:57;;;;;;;37.97;26.53;;;;;;;2.80;74.52;95628.13;5076235;28;20495;-90
2021/04/03 03:08:24;;;;;;;35.70;25.85;;;;;;;2.78;75.76;95625.88;5077117;28;20258;-90
2021/04/03 03:10:50;;;;;;;35.60;25.30;;;;;;;2.60;75.42;95602.19;5076078;28;20477;-90
2021/04/03 03:13:18;;;;;;;37.38;24.30;;;;;;;2.22;75.40;95526.22;5077037;28;20028;-91
2021/04/03 03:15:44;;;;;;;36.03;23.77;;;;;;;2.34;73.80;95553.09;5076149;28;20025;-91
2021/04/03 03:18:11;;;;;;;37.33;24.75;;;;;;;2.60;75.34;95596.81;5075944;28;20039;-91
2021/04/03 03:20:37;;;;;;;36.80;25.25;;;;;;;2.32;75.17;95566.16;5076153;28;20078;-91
2021/04/03 03:23:03;;;;;;;34.17;23.42;;;;;;;1.99;76.03;95524.50;5076079;28;20404;-91
2021/04/03 03:25:28;;;;;;;39.10;26.02;;;;;;;2.22;75.63;95543.06;5076048;28;20039;-92
2021/04/03 03:27:56;;;;;;;36.60;25.10;;;;;;;2.67;75.95;95601.25;5076934;28;20016;-92
2021/04/03 03:30:24;;;;;;;37.92;24.65;;;;;;;2.73;76.30;95607.59;5076008;28;20081;-91
2021/04/03 03:32:49;;;;;;;37.03;25.08;;;;;;;2.46;77.24;95553.56;5075989;28;20025;-91
2021/04/03 03:35:16;;;;;;;40.85;25.48;;;;;;;2.68;75.29;95596.66;5076015;28;20023;-91
2021/04/03 03:37:43;;;;;;;39.05;24.65;;;;;;;2.23;74.36;95565.25;5076895;28;20107;-91
2021/04/03 03:40:11;;;;;;;36.50;25.23;;;;;;;2.36;75.14;95603.59;5075880;28;20325;-91
2021/04/03 03:42:37;;;;;;;36.63;24.85;;;;;;;2.04;75.52;95546.19;5076817;28;20032;-91
2021/04/03 03:45:06;;;;;;;34.67;23.90;;;;;;;1.95;74.86;95550.63;5075947;28;20324;-91
2021/04/03 03:47:32;;;;;;;39.17;24.70;;;;;;;2.04;75.54;95566.88;5075801;28;20035;-91
2021/04/03 03:49:57;;;;;;;35.75;24.48;;;;;;;2.08;76.11;95565.63;5076823;28;20320;-92
2021/04/03 03:52:23;;;;;;;33.85;24.42;;;;;;;2.19;75.64;95586.78;5075638;28;20110;-91
2021/04/03 03:54:48;;;;;;;33.60;24.70;;;;;;;2.06;76.41;95559.16;5075678;28;20029;-90
2021/04/03 03:57:14;;;;;;;36.22;24.63;;;;;;;2.21;76.41;95568.34;5075946;28;20090;-89
2021/04/03 03:59:39;;;;;;;36.75;26.50;;;;;;;2.42;77.74;95593.09;5077110;28;20025;-91
2021/04/03 04:02:05;;;;;;;34.90;24.55;;;;;;;2.46;76.95;95610.59;5076553;28;20477;-91
2021/04/03 04:04:30;;;;;;;33.35;23.17;;;;;;;1.90;75.33;95538.50;5092408;28;20036;-91
2021/04/03 04:06:56;;;;;;;33.35;23.30;;;;;;;1.84;75.91;95556.25;5092576;28;20063;-90
2021/04/03 04:09:21;;;;;;;36.20;23.88;;;;;;;2.02;74.81;95585.28;5092477;28;20027;-90
2021/04/03 04:11:47;;;;;;;35.97;25.02;;;;;;;1.70;76.03;95546.59;5092476;28;20024;-91
2021/04/03 04:14:12;;;;;;;34.35;24.13;;;;;;;1.87;76.85;95555.41;5092400;28;20028;-91
2021/04/03 04:16:38;;;;;;;34.55;24.58;;;;;;;2.48;76.30;95610.19;5095529;28;20073;-91
2021/04/03 04:19:04;;;;;;;31.63;22.95;;;;;;;2.12;75.35;95581.56;5095738;28;20020;-91
2021/04/03 04:21:29;;;;;;;37.97;25.05;;;;;;;2.43;75.63;95618.72;5095809;28;20028;-92
2021/04/03 04:23:55;;;;;;;36.38;24.65;;;;;;;2.43;74.55;95624.09;5096262;28;20027;-91
2021/04/03 04:26:20;;;;;;;36.92;24.27;;;;;;;2.37;74.84;95615.81;5100289;28;20047;-91
2021/04/03 04:28:47;;;;;;;35.88;25.75;;;;;;;2.06;74.67;95573.28;5099322;28;20080;-91
2021/04/03 04:31:13;;;;;;;39.15;27.50;;;;;;;2.33;75.69;95604.41;5099312;28;20020;-91
2021/04/03 04:33:38;;;;;;;34.85;25.60;;;;;;;2.42;74.51;95609.94;5099247;28;20032;-92
2021/04/03 04:36:04;;;;;;;35.38;25.27;;;;;;;2.46;76.69;95613.28;5100143;28;20027;-91
2021/04/03 04:38:29;;;;;;;34.58;24.67;;;;;;;2.33;74.49;95609.78;5100049;28;20038;-91
2021/04/03 04:40:54;;;;;;;33.78;24.05;;;;;;;2.24;74.99;95597.00;5099063;28;20020;-91
2021/04/03 04:43:22;;;;;;;36.65;24.73;;;;;;;2.19;74.90;95591.38;5101692;28;20024;-91
2021/04/03 04:45:48;;;;;;;34.55;24.02;;;;;;;2.55;73.74;95645.59;5102112;28;20031;-90
2021/04/03 04:48:14;;;;;;;33.80;23.15;;;;;;;2.24;72.99;95601.59;5099974;28;20024;-90
2021/04/03 04:50:40;;;;;;;31.73;23.25;;;;;;;2.25;72.51;95593.13;5099083;28;20472;-91
2021/04/03 04:53:06;;;;;;;33.78;24.42;;;;;;;2.63;73.45;95654.97;5098648;28;20075;-91
2021/04/03 04:55:33;;;;;;;33.22;24.92;;;;;;;2.26;73.97;95609.97;5099000;28;20023;-92
2021/04/03 04:57:59;;;;;;;36.30;25.80;;;;;;;2.17;74.33;95593.72;5098579;28;20020;-91
2021/04/03 05:00:25;;;;;;;37.08;25.55;;;;;;;2.65;74.16;95657.22;5098630;28;20086;-92
2021/04/03 05:02:51;;;;;;;35.38;25.35;;;;;;;2.45;74.09;95617.16;5098635;28;20056;-91
2021/04/03 05:05:17;;;;;;;37.60;27.50;;;;;;;2.51;75.13;95641.53;5098557;28;20442;-91
2021/04/03 05:07:43;;;;;;;35.95;25.33;;;;;;;2.50;74.75;95650.72;5098548;28;20028;-91
2021/04/03 05:10:09;;;;;;;37.08;25.52;;;;;;;2.50;74.71;95630.00;5098562;28;20411;-90
2021/04/03 05:12:35;;;;;;;35.08;25.23;;;;;;;2.62;74.91;95648.13;5098334;28;20339;-91
2021/04/03 05:15:01;;;;;;;35.65;25.33;;;;;;;2.61;73.07;95640.50;5098235;28;20027;-90
2021/04/03 05:17:27;;;;;;;32.78;24.50;;;;;;;2.18;74.96;95577.22;5098159;28;20115;-91
2021/04/03 05:19:53;;;;;;;35.08;25.80;;;;;;;2.55;74.46;95618.78;5098247;28;20043;-90
2021/04/03 05:22:18;;;;;;;34.83;24.73;;;;;;;2.45;72.87;95602.97;5098277;28;20035;-90
2021/04/03 05:24:44;;;;;;;34.35;25.85;;;;;;;2.51;73.10;95661.03;5098049;28;20111;-90
2021/04/03 05:27:10;;;;;;;33.88;25.00;;;;;;;2.38;73.51;95638.75;5099149;28;20152;-91
2021/04/03 05:29:35;;;;;;;34.92;24.40;;;;;;;2.03;73.57;95594.84;5097977;28;20119;-90
2021/04/03 05:32:01;;;;;;;34.83;25.38;;;;;;;1.69;74.62;95565.78;5099554;28;20019;-90
2021/04/03 05:34:27;;;;;;;39.22;26.23;;;;;;;1.75;75.31;95572.13;5098917;28;20031;-90
2021/04/03 05:36:52;;;;;;;32.70;24.92;;;;;;;2.05;75.36;95628.06;5097670;28;20023;-91
2021/04/03 05:39:17;;;;;;;34.33;26.05;;;;;;;2.35;76.05;95659.13;5098715;28;20065;-90
2021/04/03 05:41:43;;;;;;;35.95;25.90;;;;;;;2.25;75.15;95637.94;5097897;28;20051;-90
2021/04/03 05:44:10;;;;;;;33.33;25.73;;;;;;;2.23;75.47;95621.50;5098925;28;20031;-90
2021/04/03 05:46:41;;;;;;;38.30;27.73;;;;;;;2.33;74.67;95641.94;5097610;28;20032;-93
2021/04/03 05:49:07;;;;;;;37.95;25.92;;;;;;;2.76;77.50;95687.22;5097680;28;20022;-92
2021/04/03 05:51:34;;;;;;;38.47;27.10;;;;;;;2.56;75.96;95665.91;5098652;28;20382;-93
2021/04/03 05:54:02;;;;;;;34.55;25.63;;;;;;;2.55;75.66;95658.25;5097426;28;20055;-92
2021/04/03 05:56:29;;;;;;;35.45;25.30;;;;;;;2.02;76.21;95612.81;5097551;28;20424;-92
2021/04/03 05:58:55;;;;;;;39.92;26.63;;;;;;;2.33;76.08;95645.38;5097387;28;20024;-92
2021/04/03 06:01:21;;;;;;;36.70;27.15;;;;;;;2.51;75.22;95674.44;5098380;28;20058;-91
2021/04/03 06:03:47;;;;;;;36.35;26.25;;;;;;;2.73;75.20;95693.44;5098235;28;20365;-92
2021/04/03 06:06:13;;;;;;;37.13;25.95;;;;;;;2.77;75.24;95685.28;5097358;28;20027;-92
2021/04/03 06:08:38;;;;;;;36.17;25.38;;;;;;;2.62;76.02;95645.44;5098695;28;20067;-91
2021/04/03 06:11:13;;;;;;;34.53;25.42;;;;;;;3.03;75.17;95697.63;5097378;28;20059;-94
2021/04/03 06:13:40;;;;;;;38.22;26.23;;;;;;;2.97;74.08;95672.50;5097257;28;20035;-90
2021/04/03 06:16:33;;;;;;;35.45;25.90;;;;;;;3.14;74.11;95692.75;5097530;28;20020;-91
2021/04/03 06:19:23;;;;;;;37.00;27.73;;;;;;;3.39;75.25;95710.84;5089676;28;20071;-91
2021/04/03 06:22:01;;;;;;;50.22;34.92;;;;;;;3.47;75.52;95710.69;5097107;28;20032;-92
2021/04/03 06:24:37;;;;;;;46.42;31.67;;;;;;;3.21;74.21;95667.66;5095959;28;20412;-92
2021/04/03 06:27:09;;;;;;;100.88;60.85;;;;;;;3.61;75.03;95710.25;5097075;28;20435;-90
2021/04/03 06:29:47;;;;;;;46.90;31.30;;;;;;;3.65;74.05;95710.91;5104125;28;20016;-90
2021/04/03 06:32:26;;;;;;;77.20;46.55;;;;;;;3.86;74.29;95717.59;5098728;28;20046;-92
2021/04/03 06:34:54;;;;;;;44.55;31.00;;;;;;;3.77;73.87;95688.69;5097276;28;20081;-93
2021/04/03 06:37:26;;;;;;;42.10;29.60;;;;;;;4.13;72.16;95717.19;5099676;28;20433;-92
2021/04/03 06:39:51;;;;;;;45.65;32.55;;;;;;;4.13;70.83;95717.94;5097094;28;20028;-92
2021/04/03 06:42:39;;;;;;;37.33;28.08;;;;;;;4.17;72.54;95715.16;5096696;28;20115;-92
2021/04/03 06:45:17;;;;;;;39.92;27.58;;;;;;;4.25;70.28;95723.75;5097778;28;20411;-92
2021/04/03 06:47:44;;;;;;;37.60;27.52;;;;;;;4.00;69.28;95681.53;5096905;28;20032;-91
2021/04/03 06:50:10;;;;;;;38.50;28.15;;;;;;;4.08;70.83;95674.72;5097576;28;20020;-91
2021/04/03 06:52:36;;;;;;;43.33;30.67;;;;;;;4.17;70.05;95694.41;5096405;28;20062;-91
2021/04/03 06:55:02;;;;;;;41.35;28.48;;;;;;;4.26;68.66;95698.38;5096827;28;20024;-89
2021/04/03 06:57:28;;;;;;;42.10;29.52;;;;;;;4.42;70.54;95684.78;5096699;28;20032;-90
2021/04/03 06:59:54;;;;;;;56.53;36.10;;;;;;;4.36;68.08;95668.44;5096373;28;20024;-89
2021/04/03 07:02:21;;;;;;;91.95;50.30;;;;;;;4.40;66.49;95671.78;5096668;28;20126;-93
2021/04/03 07:04:47;;;;;;;51.00;32.63;;;;;;;4.40;66.12;95665.66;5094957;28;20028;-90
2021/04/03 07:07:13;;;;;;;40.90;28.85;;;;;;;4.54;66.41;95686.72;5106706;28;20020;-91
2021/04/03 07:09:41;;;;;;;42.08;28.70;;;;;;;4.68;68.27;95650.53;5096464;28;20020;-91
2021/04/03 07:12:07;;;;;;;37.92;27.30;;;;;;;5.20;67.26;95719.13;5096601;28;20328;-89
2021/04/03 07:14:35;;;;;;;38.08;28.90;;;;;;;4.93;66.58;95663.16;5096335;28;20016;-89
2021/04/03 07:17:02;;;;;;;34.88;26.63;;;;;;;5.14;65.43;95688.59;5096349;28;20024;-90
2021/04/03 07:19:28;;;;;;;38.75;27.13;;;;;;;5.27;66.63;95681.19;5096213;28;20021;-91
2021/04/03 07:21:55;;;;;;;37.85;25.38;;;;;;;5.70;66.11;95704.69;5094379;28;20042;-92
2021/04/03 07:24:22;;;;;;;35.50;25.88;;;;;;;5.72;63.96;95688.06;5085677;28;20113;-94
2021/04/03 07:26:50;;;;;;;40.35;27.00;;;;;;;5.99;64.45;95725.22;5092292;28;20028;-91
2021/04/03 07:29:47;;;;;;;34.22;26.05;;;;;;;6.00;63.39;95726.72;5087907;28;20020;-90
2021/04/03 07:32:44;;;;;;;37.70;27.42;;;;;;;6.14;63.43;95720.78;5091972;28;20047;-91
2021/04/03 07:35:16;;;;;;;31.73;26.10;;;;;;;5.83;62.25;95687.66;5081136;28;20443;-91
2021/04/03 07:37:43;;;;;;;34.25;25.45;;;;;;;6.11;63.00;95704.75;5084682;28;20491;-91
2021/04/03 07:40:22;;;;;;;35.53;26.27;;;;;;;6.03;62.38;95671.91;5090376;28;20024;-91
2021/04/03 07:42:48;;;;;;;35.88;26.17;;;;;;;6.17;61.88;95679.44;5095711;28;20031;-92
2021/04/03 07:45:40;;;;;;;32.53;24.73;;;;;;;6.45;58.81;95718.06;5087213;28;20025;-91
2021/04/03 07:48:14;;;;;;;32.72;25.00;;;;;;;6.03;57.57;95674.63;5083934;28;20107;-90
2021/04/03 07:50:40;;;;;;;32.00;24.65;;;;;;;6.52;57.78;95725.13;5081161;28;20081;-91
2021/04/03 07:53:07;;;;;;;31.02;24.10;;;;;;;6.32;56.87;95690.44;5101552;28;20052;-91
2021/04/03 07:55:35;;;;;;;29.83;22.35;;;;;;;6.20;56.55;95681.25;5088188;28;20016;-92
2021/04/03 07:58:19;;;;;;;29.08;23.27;;;;;;;6.59;56.61;95719.44;5092984;28;20024;-92
2021/04/03 08:00:48;;;;;;;30.40;22.85;;;;;;;6.96;56.96;95717.53;5079491;28;20025;-93
2021/04/03 08:03:19;;;;;;;26.92;21.33;;;;;;;7.11;54.69;95719.66;5096684;28;20024;-93
2021/04/03 08:05:46;;;;;;;27.40;20.33;;;;;;;7.20;54.52;95712.31;5099692;28;20027;-93
2021/04/03 08:08:17;;;;;;;24.77;19.60;;;;;;;6.84;54.58;95677.94;5100168;28;20031;-94
2021/04/03 08:10:43;;;;;;;28.88;20.38;;;;;;;7.19;56.40;95678.41;5099737;28;20020;-95
2021/04/03 08:13:10;;;;;;;24.95;18.27;;;;;;;6.94;53.58;95655.16;5099662;28;20032;-93
2021/04/03 08:15:35;;;;;;;23.38;17.08;;;;;;;6.98;52.85;95657.72;5116412;28;20030;-91
2021/04/03 08:18:01;;;;;;;17.13;14.05;;;;;;;7.13;53.26;95679.44;5102442;28;20063;-92
2021/04/03 08:20:27;;;;;;;16.70;12.25;;;;;;;7.23;51.35;95675.53;5102409;28;20079;-93
2021/04/03 08:23:06;;;;;;;15.02;12.05;;;;;;;7.32;51.41;95700.59;5099560;28;20016;-92
2021/04/03 08:25:33;;;;;;;17.50;12.60;;;;;;;7.08;51.19;95662.66;5101850;28;20334;-91
2021/04/03 08:28:01;;;;;;;16.05;13.60;;;;;;;6.65;52.25;95628.59;5119234;28;20438;-94
2021/04/03 08:30:32;;;;;;;18.85;15.23;;;;;;;6.79;52.84;95640.75;5104712;28;20449;-93
2021/04/03 08:33:14;;;;;;;21.55;15.80;;;;;;;6.98;53.18;95649.63;5099181;28;20027;-92
2021/04/03 08:35:44;;;;;;;18.30;14.45;;;;;;;7.38;51.98;95703.44;5099170;28;20047;-90
2021/04/03 08:38:13;;;;;;;19.80;14.77;;;;;;;7.36;51.96;95703.16;5099862;28;20024;-89
2021/04/03 08:40:40;;;;;;;19.73;14.77;;;;;;;7.52;52.13;95700.13;5098777;28;20130;-90
2021/04/03 08:43:05;;;;;;;17.83;14.25;;;;;;;7.14;49.08;95651.22;5099944;28;20073;-93
2021/04/03 08:45:42;;;;;;;19.50;14.45;;;;;;;7.48;51.41;95696.84;5098941;28;20027;-94
2021/04/03 08:48:08;;;;;;;19.50;14.15;;;;;;;7.30;49.61;95665.19;5098941;28;20103;-93
2021/04/03 08:50:34;;;;;;;17.98;14.32;;;;;;;7.12;50.00;95643.59;5098905;28;20044;-92
2021/04/03 08:53:04;;;;;;;19.13;15.70;;;;;;;7.37;52.99;95688.44;5098501;28;20083;-93
2021/04/03 08:55:30;;;;;;;21.10;14.80;;;;;;;7.53;51.64;95701.63;5098417;28;20066;-93
2021/04/03 08:57:57;;;;;;;19.77;14.13;;;;;;;7.51;50.46;95704.06;5095487;28;20056;-92
2021/04/03 09:00:24;;;;;;;15.23;11.70;;;;;;;6.94;49.62;95628.16;5078405;28;20119;-94
2021/04/03 09:02:52;;;;;;;18.25;12.73;;;;;;;7.15;50.79;95645.41;5078512;28;20024;-92
2021/04/03 09:05:19;;;;;;;16.15;11.48;;;;;;;7.44;50.15;95695.47;5082340;28;20016;-94
2021/04/03 09:07:44;;;;;;;12.18;9.48;;;;;;;7.54;50.20;95705.84;5097419;28;20038;-95
2021/04/03 09:10:14;;;;;;;12.43;9.32;;;;;;;7.08;48.95;95686.97;5100751;28;20420;-91
2021/04/03 09:12:39;;;;;;;12.80;9.88;;;;;;;6.87;50.13;95650.06;5098267;28;20468;-90
2021/04/03 09:15:07;;;;;;;13.23;10.52;;;;;;;7.44;52.80;95720.56;5097551;28;20122;-93
2021/04/03 09:17:33;;;;;;;17.33;12.35;;;;;;;6.94;53.01;95647.06;5098003;28;20031;-92
2021/04/03 09:20:14;;;;;;;15.05;12.30;;;;;;;7.06;55.63;95737.97;5112081;28;20031;-92
2021/04/03 09:22:43;;;;;;;13.88;10.40;;;;;;;6.86;54.65;95707.94;5093494;28;20100;-91
2021/04/03 09:25:14;;;;;;;8.70;6.20;;;;;;;6.28;58.37;95776.13;5108451;28;20038;-91
2021/04/03 09:27:40;;;;;;;9.10;6.20;;;;;;;5.21;64.83;95707.91;5095184;28;20024;-92
2021/04/03 09:30:12;;;;;;;7.30;5.82;;;;;;;4.96;68.26;95743.78;5097109;28;20016;-93
2021/04/03 09:32:44;;;;;;;8.23;5.93;;;;;;;4.84;70.98;95776.84;5084421;28;20049;-93
2021/04/03 09:35:13;;;;;;;7.47;5.88;;;;;;;4.20;75.02;95744.59;5098402;28;20112;-93
2021/04/03 09:37:38;;;;;;;6.63;5.28;;;;;;;3.97;73.98;95746.84;5097974;28;20031;-94
2021/04/03 09:40:07;;;;;;;6.82;5.15;;;;;;;4.25;73.93;95789.03;5101968;28;20437;-94
2021/04/03 09:42:33;;;;;;;6.68;4.43;;;;;;;3.76;74.91;95767.03;5108346;28;20026;-93
2021/04/03 09:45:03;;;;;;;4.53;4.00;;;;;;;3.69;74.82;95757.25;5083438;28;20159;-91
2021/04/03 09:47:28;;;;;;;5.27;4.30;;;;;;;3.45;74.82;95721.06;5106411;28;20028;-93
2021/04/03 09:49:55;;;;;;;5.45;4.43;;;;;;;4.16;76.98;95807.75;5103222;28;20081;-93
2021/04/03 09:52:21;;;;;;;4.50;4.03;;;;;;;3.84;75.81;95777.16;5108194;28;20134;-92
2021/04/03 09:54:48;;;;;;;5.97;4.75;;;;;;;4.21;74.62;95817.97;5105377;28;20433;-92
2021/04/03 09:57:14;;;;;;;6.82;5.10;;;;;;;4.38;75.48;95818.63;5085969;28;20023;-92
2021/04/03 09:59:41;;;;;;;6.43;5.18;;;;;;;3.94;75.26;95775.31;5098290;28;20067;-92
2021/04/03 10:02:07;;;;;;;6.47;5.18;;;;;;;4.16;76.61;95802.38;5099508;28;20043;-93
2021/04/03 10:04:33;;;;;;;5.13;4.20;;;;;;;4.09;75.63;95826.75;5097302;28;20055;-92
2021/04/03 10:06:59;;;;;;;6.30;5.13;;;;;;;3.59;76.25;95777.09;5091793;28;20028;-92
2021/04/03 10:09:25;;;;;;;6.80;4.75;;;;;;;3.92;77.73;95783.81;5097184;28;20155;-92
2021/04/03 10:11:53;;;;;;;6.10;5.20;;;;;;;3.77;77.90;95747.03;5097287;28;20027;-93
2021/04/03 10:14:18;;;;;;;5.78;4.60;;;;;;;3.74;78.67;95751.34;5092047;28;20553;-91
2021/04/03 10:16:44;;;;;;;5.78;4.65;;;;;;;3.97;76.12;95761.03;5085718;28;20070;-92
2021/04/03 10:19:10;;;;;;;6.07;4.57;;;;;;;4.34;77.51;95804.53;5088253;28;20033;-92
2021/04/03 10:21:36;;;;;;;4.80;4.15;;;;;;;3.91;75.40;95806.50;5092104;28;20028;-93
2021/04/03 10:24:22;;;;;;;7.05;3.95;;;;;;;4.37;76.93;95842.06;5100820;28;20039;-90
2021/04/03 10:26:47;;;;;;;5.93;4.43;;;;;;;4.03;76.68;95786.19;5083942;28;20442;-89
2021/04/03 10:29:12;;;;;;;5.03;4.10;;;;;;;4.38;76.29;95834.75;5093206;28;20020;-89
2021/04/03 10:31:39;;;;;;;4.95;3.85;;;;;;;4.18;73.60;95795.38;5091762;28;20031;-92
2021/04/03 10:34:10;;;;;;;5.20;3.45;;;;;;;3.85;74.41;95797.47;5099469;28;20048;-87
2021/04/03 10:36:35;;;;;;;;;;;;;;;4.52;76.31;95861.22;5087060;28;20035;-91
2021/04/03 10:39:02;;;;;;;8.30;6.38;;;;;;;4.53;75.44;95861.97;5096595;28;19916;-90
2021/04/03 10:41:28;;;;;;;4.50;3.83;;;;;;;4.38;74.40;95811.31;5098894;28;20020;-91
2021/04/03 10:43:54;;;;;;;4.85;4.28;;;;;;;4.53;75.52;95830.47;5097179;28;20297;-90
2021/04/03 10:46:19;;;;;;;2.90;2.60;;;;;;;4.28;72.62;95815.06;5096811;28;20486;-89
2021/04/03 10:48:45;;;;;;;2.72;2.50;;;;;;;4.25;70.60;95794.41;5094834;28;20084;-90
2021/04/03 10:51:10;;;;;;;3.05;2.65;;;;;;;4.45;73.21;95826.47;5085789;28;20316;-89
2021/04/03 10:53:36;;;;;;;5.18;3.88;;;;;;;4.68;73.55;95849.59;5092674;28;20044;-92
2021/04/03 10:56:02;;;;;;;3.38;3.08;;;;;;;4.49;72.72;95816.38;5096764;28;20373;-90
2021/04/03 10:58:28;;;;;;;4.07;3.03;;;;;;;4.33;73.64;95795.72;5096206;28;20051;-90
2021/04/03 11:00:53;;;;;;;4.18;3.03;;;;;;;4.45;74.01;95807.66;5100162;28;20411;-90
2021/04/03 11:03:19;;;;;;;3.17;2.88;;;;;;;4.80;73.33;95821.22;5096257;28;20116;-90
2021/04/03 11:05:45;;;;;;;3.63;3.25;;;;;;;4.73;73.11;95793.31;5092321;28;20031;-92
2021/04/03 11:08:10;;;;;;;4.38;3.60;;;;;;;4.95;71.76;95833.00;5091203;28;20081;-90
2021/04/03 11:10:36;;;;;;;4.43;4.03;;;;;;;4.82;72.95;95771.16;5088501;28;20027;-90
2021/04/03 11:13:02;;;;;;;6.32;4.65;;;;;;;5.07;74.76;95813.41;5088189;28;20408;-91
2021/04/03 11:15:28;;;;;;;6.93;4.60;;;;;;;5.53;72.06;95836.09;5084356;28;20031;-90
2021/04/03 11:17:53;;;;;;;6.80;4.22;;;;;;;5.61;70.28;95823.16;5083659;28;20024;-90
2021/04/03 11:20:20;;;;;;;5.50;4.43;;;;;;;6.26;73.08;95876.34;5084572;28;20089;-90
2021/04/03 11:22:46;;;;;;;6.03;4.85;;;;;;;6.09;71.88;95825.78;5083859;28;20032;-92
2021/04/03 11:25:12;;;;;;;4.68;3.90;;;;;;;6.87;69.52;95881.44;5084076;28;20039;-91
2021/04/03 11:27:37;;;;;;;9.30;6.38;;;;;;;6.75;69.85;95831.78;5081218;28;20025;-91
2021/04/03 11:30:13;;;;;;;7.18;5.32;;;;;;;6.88;67.93;95843.22;5086625;28;20021;-91
2021/04/03 11:32:47;;;;;;;5.65;3.17;;;;;;;6.80;64.46;95877.09;5085732;28;20036;-90
2021/04/03 11:35:15;;;;;;;6.38;5.15;;;;;;;6.34;66.00;95798.66;5102439;28;20032;-91